Time;durP1;ratioP1;P1;durP2;ratioP2;P2;SDS_P1;SDS_P2;PMS_P1;PMS_P2;Temp;Humidity;BMP_temperature;BMP_pressure;BME280_temperature;BME280_humidity;BME280_pressure;Samples;Min_cycle;Max_cycle;Signal;HPM_P1;HPM_P2
2022/01/26 00:00:20;;;;;;;60.10;19.20;;;;;;;;;;8463243;28;20157;-81
2022/01/26 00:09:05;;;;;;;55.28;19.63;;;;;;;;;;8463076;28;20054;-81
2022/01/26 00:13:07;;;;;;;53.55;18.33;;;;;;;;;;8462965;28;20108;-81
2022/01/26 00:17:12;;;;;;;59.95;18.60;;;;;;;;;;8462965;28;20040;-81
2022/01/26 00:21:25;;;;;;;55.78;17.10;;;;;;;;;;8466371;28;20510;-81
2022/01/26 00:25:39;;;;;;;53.83;19.23;;;;;;;;;;8468893;28;20040;-81
2022/01/26 00:29:48;;;;;;;48.47;17.33;;;;;;;;;;8468592;28;20104;-81
2022/01/26 00:42:36;;;;;;;52.58;17.60;;;;;;;;;;8468958;28;20407;-81
2022/01/26 00:46:43;;;;;;;60.00;17.67;;;;;;;;;;8468238;28;20581;-81
2022/01/26 00:50:50;;;;;;;53.45;17.05;;;;;;;;;;8468487;28;20502;-81
2022/01/26 00:54:55;;;;;;;50.60;17.35;;;;;;;;;;8468148;28;20060;-81
2022/01/26 00:58:57;;;;;;;52.35;16.52;;;;;;;;;;8467850;28;20049;-81
2022/01/26 01:03:01;;;;;;;48.08;16.73;;;;;;;;;;8467752;28;20050;-81
2022/01/26 01:07:06;;;;;;;53.33;17.48;;;;;;;;;;8467528;28;20122;-81
2022/01/26 01:11:11;;;;;;;44.97;16.58;;;;;;;;;;8467486;28;20052;-81
2022/01/26 01:15:14;;;;;;;46.20;16.35;;;;;;;;;;8467365;28;20043;-81
2022/01/26 01:19:30;;;;;;;46.53;17.38;;;;;;;;;;8467328;28;20063;-81
2022/01/26 01:23:58;;;;;;;47.80;18.10;;;;;;;;;;8467147;28;20061;-81
2022/01/26 01:28:21;;;;;;;40.50;14.93;;;;;;;;;;8466808;28;20160;-81
2022/01/26 01:32:32;;;;;;;37.72;16.02;;;;;;;;;;8457100;28;20048;-81
2022/01/26 01:36:37;;;;;;;40.50;14.43;;;;;;;;;;8444381;28;20127;-81
2022/01/26 01:40:42;;;;;;;39.60;14.10;;;;;;;;;;8458927;28;20118;-81
2022/01/26 01:44:46;;;;;;;37.67;13.98;;;;;;;;;;8466411;28;20050;-81
2022/01/26 01:48:48;;;;;;;33.28;13.38;;;;;;;;;;8466358;28;20055;-81
2022/01/26 01:52:51;;;;;;;34.00;12.73;;;;;;;;;;8466582;28;20048;-81
2022/01/26 01:56:56;;;;;;;30.75;12.68;;;;;;;;;;8466158;28;20058;-81
2022/01/26 02:01:00;;;;;;;30.77;11.55;;;;;;;;;;8465994;28;20122;-81
2022/01/26 02:05:03;;;;;;;24.38;10.82;;;;;;;;;;8466199;28;20043;-81
2022/01/26 02:09:08;;;;;;;25.45;9.85;;;;;;;;;;8466030;28;20479;-82
2022/01/26 02:13:18;;;;;;;26.58;10.93;;;;;;;;;;8465913;28;20471;-81
2022/01/26 02:17:40;;;;;;;22.05;10.63;;;;;;;;;;8465639;28;20135;-81
2022/01/26 02:52:23;;;;;;;24.42;10.27;;;;;;;;;;8464424;28;20043;-81
2022/01/26 02:56:37;;;;;;;24.45;11.45;;;;;;;;;;8464780;28;20043;-81
2022/01/26 03:00:48;;;;;;;25.20;9.60;;;;;;;;;;8465017;28;20047;-81
2022/01/26 03:04:54;;;;;;;19.38;8.70;;;;;;;;;;8464193;28;20122;-81
2022/01/26 03:09:01;;;;;;;20.50;9.82;;;;;;;;;;8463945;28;20048;-81
2022/01/26 03:13:09;;;;;;;27.27;10.02;;;;;;;;;;8463988;28;20044;-82
2022/01/26 03:17:23;;;;;;;32.58;11.40;;;;;;;;;;8463935;28;20046;-81
2022/01/26 03:21:33;;;;;;;27.77;10.90;;;;;;;;;;8463960;28;20108;-81
2022/01/26 03:30:01;;;;;;;33.63;11.63;;;;;;;;;;8463892;28;20464;-82
2022/01/26 03:34:09;;;;;;;35.60;12.55;;;;;;;;;;8460625;28;20122;-82
2022/01/26 03:38:20;;;;;;;37.90;12.68;;;;;;;;;;8440599;28;20048;-82
2022/01/26 03:42:22;;;;;;;43.70;11.98;;;;;;;;;;8463730;28;20048;-81
2022/01/26 03:46:27;;;;;;;39.70;12.93;;;;;;;;;;8463613;28;20051;-81
2022/01/26 03:50:29;;;;;;;46.58;16.35;;;;;;;;;;8430472;28;20635;-82
2022/01/26 03:54:32;;;;;;;45.60;17.63;;;;;;;;;;8430524;28;20086;-81
2022/01/26 03:58:35;;;;;;;50.50;14.90;;;;;;;;;;8436107;28;20058;-82
2022/01/26 04:02:39;;;;;;;44.38;12.70;;;;;;;;;;8436789;28;20040;-82
2022/01/26 04:06:41;;;;;;;34.35;11.57;;;;;;;;;;8435774;28;20066;-81
2022/01/26 04:10:55;;;;;;;38.45;13.00;;;;;;;;;;8435737;28;20070;-82
2022/01/26 04:15:04;;;;;;;36.53;12.30;;;;;;;;;;8436006;28;20043;-82
2022/01/26 04:19:09;;;;;;;43.83;15.18;;;;;;;;;;8435486;28;20052;-82
2022/01/26 04:23:16;;;;;;;49.67;18.35;;;;;;;;;;8435759;28;20044;-82
2022/01/26 04:27:24;;;;;;;49.22;14.98;;;;;;;;;;8435288;28;20040;-82
2022/01/26 04:31:27;;;;;;;38.58;15.30;;;;;;;;;;8435191;28;20397;-81
2022/01/26 04:35:31;;;;;;;33.13;12.18;;;;;;;;;;8435399;28;20543;-82
2022/01/26 04:39:39;;;;;;;34.10;12.38;;;;;;;;;;8434800;28;20089;-82
2022/01/26 04:43:45;;;;;;;36.47;12.82;;;;;;;;;;8434706;28;20048;-82
2022/01/26 04:47:47;;;;;;;39.13;13.90;;;;;;;;;;8434893;28;20048;-82
2022/01/26 04:51:52;;;;;;;58.50;21.58;;;;;;;;;;8434425;28;20044;-82
2022/01/26 06:00:40;;;;;;;27.58;10.40;;;;;;;;;;8422475;27;20509;-76
2022/01/26 06:04:43;;;;;;;22.08;9.63;;;;;;;;;;8424357;28;20044;-78
2022/01/26 06:08:45;;;;;;;26.80;10.93;;;;;;;;;;8421653;28;20048;-78
2022/01/26 06:12:48;;;;;;;25.02;12.05;;;;;;;;;;8421741;28;20059;-78
2022/01/26 06:16:52;;;;;;;32.40;13.63;;;;;;;;;;8421542;28;20041;-77
2022/01/26 06:20:55;;;;;;;24.13;9.80;;;;;;;;;;8425334;28;20402;-76
2022/01/26 06:24:58;;;;;;;19.83;8.68;;;;;;;;;;8426348;28;20589;-76
2022/01/26 06:29:02;;;;;;;25.88;12.00;;;;;;;;;;8425186;28;20046;-77
2022/01/26 06:33:06;;;;;;;21.95;10.27;;;;;;;;;;8421093;28;20044;-76
2022/01/26 06:37:09;;;;;;;35.70;14.13;;;;;;;;;;8423786;28;20055;-77
2022/01/26 06:41:12;;;;;;;33.08;14.23;;;;;;;;;;8418642;28;20408;-76
2022/01/26 06:45:17;;;;;;;26.27;12.18;;;;;;;;;;8425645;28;20067;-77
2022/01/26 06:49:30;;;;;;;26.52;12.05;;;;;;;;;;8420208;28;20048;-77
2022/01/26 06:53:33;;;;;;;26.20;11.75;;;;;;;;;;8429576;28;20423;-77
2022/01/26 06:57:35;;;;;;;25.40;11.57;;;;;;;;;;8411100;28;20141;-78
2022/01/26 07:01:38;;;;;;;29.15;12.85;;;;;;;;;;8396848;28;20094;-77
2022/01/26 07:05:46;;;;;;;24.23;11.43;;;;;;;;;;8399408;28;20041;-76
2022/01/26 07:09:53;;;;;;;36.15;14.40;;;;;;;;;;8395120;28;20041;-77
2022/01/26 07:13:58;;;;;;;36.58;15.68;;;;;;;;;;8395431;28;20065;-77
2022/01/26 07:22:46;;;;;;;30.92;14.93;;;;;;;;;;8393707;28;20054;-76
2022/01/26 07:27:00;;;;;;;34.95;15.30;;;;;;;;;;8389653;28;20051;-77
2022/01/26 07:31:12;;;;;;;37.38;16.83;;;;;;;;;;8389947;28;20055;-76
2022/01/26 07:35:35;;;;;;;44.85;19.02;;;;;;;;;;8395069;28;20090;-76
2022/01/26 07:39:47;;;;;;;52.33;21.10;;;;;;;;;;8385200;28;20106;-77
2022/01/26 07:43:56;;;;;;;38.80;18.05;;;;;;;;;;8390440;28;20052;-76
2022/01/26 07:48:09;;;;;;;37.55;17.50;;;;;;;;;;8390332;28;20049;-77
2022/01/26 07:52:25;;;;;;;38.00;17.90;;;;;;;;;;8392860;28;20048;-77
2022/01/26 07:56:36;;;;;;;;;;;;;;;;;;8391414;28;20483;-78
2022/01/26 08:00:51;;;;;;;46.92;18.98;;;;;;;;;;8390942;28;20376;-77
2022/01/26 08:05:07;;;;;;;54.25;19.65;;;;;;;;;;8386034;28;20143;-77
2022/01/26 08:09:17;;;;;;;53.65;22.25;;;;;;;;;;8388921;28;20064;-77
2022/01/26 08:13:30;;;;;;;49.40;22.33;;;;;;;;;;8390059;28;20051;-77
2022/01/26 08:17:42;;;;;;;57.95;21.63;;;;;;;;;;8392654;28;20562;-77
2022/01/26 08:22:00;;;;;;;50.70;19.85;;;;;;;;;;8385921;28;20454;-77
2022/01/26 08:26:11;;;;;;;38.22;17.40;;;;;;;;;;8394346;28;20484;-77
2022/01/26 08:30:21;;;;;;;48.85;20.10;;;;;;;;;;8387227;28;20094;-77
2022/01/26 08:34:30;;;;;;;45.95;18.90;;;;;;;;;;8396650;28;20094;-77
2022/01/26 08:38:41;;;;;;;38.22;17.38;;;;;;;;;;8389823;28;20131;-77
2022/01/26 08:42:50;;;;;;;43.90;18.77;;;;;;;;;;8394875;28;20074;-77
2022/01/26 08:47:00;;;;;;;39.78;17.52;;;;;;;;;;8388593;28;20399;-78
2022/01/26 08:51:03;;;;;;;37.15;17.08;;;;;;;;;;8394448;28;20503;-76
2022/01/26 08:55:06;;;;;;;39.13;16.35;;;;;;;;;;8394467;28;20086;-78
2022/01/26 08:59:09;;;;;;;34.35;14.40;;;;;;;;;;8391439;28;20500;-78
2022/01/26 09:03:13;;;;;;;34.63;15.23;;;;;;;;;;8392750;28;20102;-79
2022/01/26 09:07:19;;;;;;;37.78;16.88;;;;;;;;;;8397017;28;20391;-80
2022/01/26 09:11:22;;;;;;;35.88;17.02;;;;;;;;;;8394847;28;20047;-80
2022/01/26 09:15:29;;;;;;;31.95;15.00;;;;;;;;;;8399030;28;20051;-79
2022/01/26 09:19:35;;;;;;;31.15;13.55;;;;;;;;;;8397596;28;20071;-80
2022/01/26 09:23:38;;;;;;;28.75;12.23;;;;;;;;;;8392334;28;20105;-82
2022/01/26 09:27:41;;;;;;;25.58;11.05;;;;;;;;;;8396059;28;20041;-81
2022/01/26 09:31:47;;;;;;;27.35;11.27;;;;;;;;;;8391027;28;20059;-82
2022/01/26 09:35:57;;;;;;;26.10;12.38;;;;;;;;;;8386172;28;20044;-79
2022/01/26 09:40:04;;;;;;;20.40;10.55;;;;;;;;;;8388129;28;20048;-80
2022/01/26 09:44:07;;;;;;;21.45;10.93;;;;;;;;;;8394872;28;20063;-80
2022/01/26 09:48:13;;;;;;;26.17;11.82;;;;;;;;;;8390001;28;20043;-80
2022/01/26 09:52:29;;;;;;;28.40;13.00;;;;;;;;;;8379534;28;20049;-80
2022/01/26 09:56:35;;;;;;;28.45;13.25;;;;;;;;;;8393896;28;20524;-81
2022/01/26 10:00:41;;;;;;;27.38;12.27;;;;;;;;;;8395712;28;20048;-78
2022/01/26 10:04:46;;;;;;;24.65;11.52;;;;;;;;;;8388518;28;20052;-82
2022/01/26 10:09:13;;;;;;;22.00;9.75;;;;;;;;;;8392001;28;20454;-80
2022/01/26 10:17:46;;;;;;;25.17;12.18;;;;;;;;;;8387150;28;20135;-78
2022/01/26 10:21:57;;;;;;;;;;;;;;;;;;8389472;28;20048;-82
2022/01/26 10:26:07;;;;;;;39.22;15.68;;;;;;;;;;8392908;28;19921;-78
2022/01/26 10:30:14;;;;;;;19.88;10.15;;;;;;;;;;8388976;28;20037;-79
2022/01/26 10:34:23;;;;;;;25.35;10.23;;;;;;;;;;8392976;28;20044;-80
2022/01/26 10:38:29;;;;;;;17.77;8.50;;;;;;;;;;8393155;28;20040;-80
2022/01/26 10:42:34;;;;;;;27.77;12.25;;;;;;;;;;8391733;28;20048;-79
2022/01/26 10:46:40;;;;;;;23.65;11.85;;;;;;;;;;8392065;28;20048;-81
2022/01/26 10:51:09;;;;;;;26.98;13.07;;;;;;;;;;8390302;28;20070;-80
2022/01/26 10:55:14;;;;;;;39.95;16.80;;;;;;;;;;8391578;28;20041;-80
2022/01/26 10:59:19;;;;;;;31.67;14.30;;;;;;;;;;8392071;28;20057;-81
2022/01/26 11:03:30;;;;;;;41.15;18.10;;;;;;;;;;8387708;28;20424;-80
2022/01/26 11:07:40;;;;;;;47.33;20.67;;;;;;;;;;8388084;28;20048;-80
2022/01/26 11:11:45;;;;;;;46.92;16.17;;;;;;;;;;8389127;28;20037;-80
2022/01/26 11:15:50;;;;;;;88.78;30.73;;;;;;;;;;8394465;28;20485;-81
2022/01/26 11:19:59;;;;;;;41.35;18.00;;;;;;;;;;8392185;28;20051;-80
2022/01/26 11:24:14;;;;;;;28.90;13.88;;;;;;;;;;8387055;28;20044;-80
2022/01/26 11:28:20;;;;;;;34.58;15.48;;;;;;;;;;8388318;28;20587;-81
2022/01/26 11:33:00;;;;;;;25.90;11.93;;;;;;;;;;8388466;28;20380;-79
2022/01/26 11:37:08;;;;;;;28.80;13.95;;;;;;;;;;8386241;28;20036;-79
2022/01/26 11:46:17;;;;;;;25.08;13.60;;;;;;;;;;8391197;28;20455;-80
2022/01/26 11:50:23;;;;;;;29.38;14.70;;;;;;;;;;8392231;28;20041;-80
2022/01/26 11:54:49;;;;;;;20.73;10.73;;;;;;;;;;8386595;28;20077;-80
2022/01/26 11:58:55;;;;;;;27.58;13.02;;;;;;;;;;8396179;28;20063;-79
2022/01/26 12:03:09;;;;;;;31.67;14.13;;;;;;;;;;8398043;28;20051;-82
2022/01/26 12:07:22;;;;;;;57.33;24.35;;;;;;;;;;8398637;28;20454;-80
2022/01/26 12:11:29;;;;;;;60.90;20.83;;;;;;;;;;8399008;28;20067;-81
2022/01/26 12:15:42;;;;;;;30.77;13.98;;;;;;;;;;8398815;28;20067;-78
2022/01/26 12:20:06;;;;;;;35.05;16.65;;;;;;;;;;8376775;28;20045;-80
2022/01/26 12:37:50;;;;;;;88.93;34.10;;;;;;;;;;8286674;28;20106;-79
2022/01/26 12:41:56;;;;;;;60.75;28.20;;;;;;;;;;8364744;28;20086;-79
2022/01/26 12:46:00;;;;;;;41.30;19.67;;;;;;;;;;8376069;28;20041;-81
2022/01/26 12:50:05;;;;;;;116.85;41.10;;;;;;;;;;8364385;28;20124;-82
2022/01/26 12:54:09;;;;;;;32.17;15.50;;;;;;;;;;8364442;28;20512;-78
2022/01/26 12:58:13;;;;;;;39.75;22.63;;;;;;;;;;8364525;28;20079;-80
2022/01/26 13:02:26;;;;;;;98.57;39.65;;;;;;;;;;8373719;28;20118;-81
2022/01/26 13:06:40;;;;;;;63.67;24.48;;;;;;;;;;8375105;28;20480;-81
2022/01/26 13:10:48;;;;;;;62.58;29.83;;;;;;;;;;8363829;28;20547;-79
2022/01/26 13:15:06;;;;;;;52.80;24.33;;;;;;;;;;8363947;28;20052;-79
2022/01/26 13:19:21;;;;;;;101.70;48.70;;;;;;;;;;8363822;28;20491;-78
2022/01/26 13:23:34;;;;;;;49.05;27.30;;;;;;;;;;8363843;28;20041;-80
2022/01/26 13:28:13;;;;;;;65.13;34.08;;;;;;;;;;8363673;28;20064;-79
2022/01/26 13:32:48;;;;;;;29.77;13.47;;;;;;;;;;8363602;28;20055;-76
2022/01/26 13:37:17;;;;;;;27.70;14.73;;;;;;;;;;8363496;28;20357;-81
2022/01/26 13:41:30;;;;;;;27.17;15.32;;;;;;;;;;8363319;28;20068;-79
2022/01/26 13:50:19;;;;;;;27.45;13.77;;;;;;;;;;8362792;28;20051;-78
2022/01/26 13:54:48;;;;;;;30.85;16.30;;;;;;;;;;8374342;28;20044;-80
2022/01/26 13:59:01;;;;;;;48.60;21.45;;;;;;;;;;8373773;28;20057;-77
2022/01/26 14:03:07;;;;;;;58.92;24.88;;;;;;;;;;8371351;28;20044;-78
2022/01/26 14:07:12;;;;;;;47.03;20.95;;;;;;;;;;8367798;28;20037;-78
2022/01/26 14:11:15;;;;;;;44.33;20.88;;;;;;;;;;8381478;28;20048;-81
2022/01/26 14:15:25;;;;;;;48.65;21.02;;;;;;;;;;8369193;28;20045;-81
2022/01/26 14:19:39;;;;;;;71.13;25.92;;;;;;;;;;8369320;28;20104;-80
2022/01/26 14:28:04;;;;;;;31.35;14.10;;;;;;;;;;8368513;28;20424;-82
2022/01/26 14:32:26;;;;;;;35.65;15.93;;;;;;;;;;8368401;28;20503;-81
2022/01/26 14:36:46;;;;;;;35.17;16.13;;;;;;;;;;8370947;28;20041;-80
2022/01/26 15:33:39;;;;;;;57.33;24.50;;;;;;;;;;8390716;28;20052;-79
2022/01/26 15:42:49;;;;;;;163.18;56.03;;;;;;;;;;8398422;28;20050;-81
2022/01/26 15:51:45;;;;;;;230.55;50.83;;;;;;;;;;8399240;28;20079;-80
2022/01/26 16:05:02;;;;;;;126.05;38.67;;;;;;;;;;8392453;28;20048;-81
2022/01/26 16:27:09;;;;;;;81.28;28.55;;;;;;;;;;8376573;28;20132;-79
2022/01/26 16:35:52;;;;;;;85.35;28.85;;;;;;;;;;8371022;28;20044;-79
2022/01/26 17:02:06;;;;;;;119.53;31.20;;;;;;;;;;8375908;28;20124;-78
2022/01/26 17:11:26;;;;;;;129.82;31.52;;;;;;;;;;8393658;28;20561;-78
2022/01/26 17:24:50;;;;;;;193.35;54.78;;;;;;;;;;8371846;28;20480;-80
2022/01/26 17:46:58;;;;;;;40.55;16.27;;;;;;;;;;8383851;28;19931;-80
2022/01/26 18:04:46;;;;;;;45.40;17.42;;;;;;;;;;8385608;28;20168;-80
2022/01/26 18:17:50;;;;;;;80.68;28.50;;;;;;;;;;8365977;28;20596;-79
2022/01/26 18:26:27;;;;;;;64.10;21.30;;;;;;;;;;8385352;28;20041;-79
2022/01/26 18:40:04;;;;;;;86.78;29.20;;;;;;;;;;8383678;28;20044;-81
2022/01/26 18:52:59;;;;;;;150.52;51.47;;;;;;;;;;8395182;28;20405;-80
2022/01/26 18:57:09;;;;;;;39.67;18.08;;;;;;;;;;8394863;28;20098;-78
2022/01/26 19:01:13;;;;;;;78.50;26.38;;;;;;;;;;8399373;28;20136;-78
2022/01/26 19:05:18;;;;;;;48.50;20.52;;;;;;;;;;8393144;28;20111;-78
2022/01/26 19:09:24;;;;;;;102.22;38.72;;;;;;;;;;8398609;28;20397;-79
2022/01/26 19:13:30;;;;;;;59.38;23.98;;;;;;;;;;8392416;28;20041;-78
2022/01/26 19:17:45;;;;;;;53.88;21.33;;;;;;;;;;8399386;28;20549;-79
2022/01/26 19:22:05;;;;;;;36.28;14.63;;;;;;;;;;8393437;28;20055;-80
2022/01/26 19:26:15;;;;;;;40.20;16.25;;;;;;;;;;8395062;28;20114;-79
2022/01/26 19:52:33;;;;;;;42.00;17.92;;;;;;;;;;8439050;28;20048;-79
2022/01/26 19:56:58;;;;;;;35.45;15.07;;;;;;;;;;8436454;28;20071;-79
2022/01/26 20:01:18;;;;;;;33.35;16.23;;;;;;;;;;8434884;28;20040;-82
2022/01/26 20:05:33;;;;;;;33.35;12.82;;;;;;;;;;8436763;28;20043;-81
2022/01/26 20:09:46;;;;;;;40.15;15.70;;;;;;;;;;8434349;28;20406;-81
2022/01/26 20:14:06;;;;;;;35.47;16.77;;;;;;;;;;8431014;28;20048;-79
2022/01/26 20:18:16;;;;;;;66.32;27.98;;;;;;;;;;8442535;28;20048;-79
2022/01/26 20:22:26;;;;;;;55.08;21.15;;;;;;;;;;8442169;28;20497;-78
2022/01/26 20:26:40;;;;;;;53.67;24.48;;;;;;;;;;8442884;28;20044;-79
2022/01/26 20:41:14;;;;;;;80.53;26.67;;;;;;;;;;8386981;28;20400;-79
2022/01/26 20:45:51;;;;;;;38.95;15.05;;;;;;;;;;8370566;28;20065;-78
2022/01/26 20:50:09;;;;;;;49.25;17.13;;;;;;;;;;8366549;28;20049;-77
2022/01/26 20:54:20;;;;;;;149.85;34.97;;;;;;;;;;8362185;28;20144;-79
2022/01/26 20:58:25;;;;;;;29.42;12.93;;;;;;;;;;8366016;28;20060;-80
2022/01/26 21:02:41;;;;;;;59.67;18.58;;;;;;;;;;8367235;28;20145;-78
2022/01/26 21:06:45;;;;;;;44.92;15.43;;;;;;;;;;8364191;28;20048;-80
2022/01/26 21:10:50;;;;;;;38.05;15.25;;;;;;;;;;8366287;28;20434;-79
2022/01/26 21:20:37;;;;;;;35.33;14.52;;;;;;;;;;8363818;28;20045;-79
2022/01/26 21:25:13;;;;;;;69.32;19.27;;;;;;;;;;8365320;28;20094;-78
2022/01/26 21:29:21;;;;;;;44.90;13.07;;;;;;;;;;8365721;28;20052;-79
2022/01/26 21:33:26;;;;;;;35.22;15.07;;;;;;;;;;8378527;28;20413;-80
2022/01/26 21:37:41;;;;;;;35.08;16.17;;;;;;;;;;8419153;28;20040;-80
2022/01/26 21:41:54;;;;;;;40.65;16.77;;;;;;;;;;8412912;28;20067;-79
2022/01/26 21:46:23;;;;;;;35.58;14.68;;;;;;;;;;8413657;28;20551;-79
2022/01/26 21:50:38;;;;;;;28.33;12.57;;;;;;;;;;8416557;28;20044;-79
2022/01/26 21:54:52;;;;;;;53.83;18.67;;;;;;;;;;8410115;28;20483;-79
2022/01/26 21:59:03;;;;;;;39.92;15.90;;;;;;;;;;8412407;28;20044;-79
2022/01/26 22:03:07;;;;;;;22.50;11.30;;;;;;;;;;8411577;28;20127;-79
2022/01/26 22:07:22;;;;;;;27.67;11.82;;;;;;;;;;8411371;28;20491;-79
2022/01/26 22:11:31;;;;;;;28.98;11.98;;;;;;;;;;8422558;28;20109;-78
2022/01/26 22:15:37;;;;;;;30.30;10.98;;;;;;;;;;8408957;28;20070;-79
2022/01/26 22:19:41;;;;;;;20.02;10.10;;;;;;;;;;8415101;28;20044;-78
2022/01/26 22:23:44;;;;;;;27.35;11.45;;;;;;;;;;8409217;28;20036;-81
2022/01/26 22:27:50;;;;;;;21.65;9.68;;;;;;;;;;8411416;28;20067;-79
2022/01/26 22:31:54;;;;;;;24.17;9.95;;;;;;;;;;8413094;28;20036;-79
2022/01/26 22:36:06;;;;;;;22.38;11.30;;;;;;;;;;8414547;28;20051;-80
2022/01/26 22:40:11;;;;;;;24.88;10.57;;;;;;;;;;8414086;28;20047;-79
2022/01/26 22:44:18;;;;;;;19.92;8.80;;;;;;;;;;8416329;28;20044;-78
2022/01/26 22:48:24;;;;;;;21.45;10.73;;;;;;;;;;8415551;28;20127;-80
2022/01/26 22:52:28;;;;;;;22.42;9.43;;;;;;;;;;8416770;28;20509;-78
2022/01/26 22:56:30;;;;;;;25.65;11.02;;;;;;;;;;8413116;28;20040;-78
2022/01/26 23:01:12;;;;;;;18.52;8.70;;;;;;;;;;8410242;28;20049;-80
2022/01/26 23:05:32;;;;;;;20.42;8.38;;;;;;;;;;8418748;28;20044;-79
2022/01/26 23:09:35;;;;;;;20.67;10.50;;;;;;;;;;8411800;28;20131;-79
2022/01/26 23:13:38;;;;;;;21.48;8.90;;;;;;;;;;8412837;28;20445;-80
2022/01/26 23:17:42;;;;;;;19.48;8.27;;;;;;;;;;8417696;28;20131;-80
2022/01/26 23:21:45;;;;;;;17.85;8.25;;;;;;;;;;8415210;28;20076;-79
2022/01/26 23:25:55;;;;;;;21.80;9.90;;;;;;;;;;8412273;28;20415;-78
2022/01/26 23:30:04;;;;;;;18.67;8.77;;;;;;;;;;8416305;28;20423;-79
2022/01/26 23:34:24;;;;;;;21.10;9.63;;;;;;;;;;8422493;28;20511;-78
2022/01/26 23:38:37;;;;;;;19.77;8.88;;;;;;;;;;8428934;28;20123;-79
